Diane — WDF2440 — position and weather

sailwx.info

Track history (hours):
 
Tides and Currents Weather Stations Pressure Air Temp Water Temp Dewpoint Dewpoint Depression Visibility Wind Speed Wind Dir Waves Ship Positions

Diane

Owner: Enterprise Marine Services, LLC, San Antonio, TX. More information available from US FCC via Universal Licensing System and Coast Guard Vessel Documentation Center.

Last reported at 2017-Nov-19 12:27 UTC. Time now 2017-Nov-21 02:43 UTC.
Position N 29°47' W 095°05'.

Length 24 m; draft 0.6 m.

Type: . MMSI: 367131150.

Date/timePositionNaut miles runAvg speedWind from/ knotsBaromVisibWave heightAir tempDewpointWater temp
2017-Nov-19 12:27N 29°47' W 095°05'2 0.1
2017-Nov-18 17:08N 29°46' W 095°05'1 6.0
2017-Nov-18 16:54N 29°45' W 095°04'3 5.8
2017-Nov-18 16:26N 29°43' W 095°01'2 5.9
2017-Nov-18 16:00N 29°41' W 094°59'3 6.2
2017-Nov-18 15:30N 29°38' W 094°58'4 7.2
2017-Nov-18 15:00N 29°35' W 094°56'4 7.1
2017-Nov-18 14:30N 29°32' W 094°54'60 1.3
2017-Nov-16 14:50N 29°58' W 093°52'0 0.0
2017-Nov-16 14:18N 29°58' W 093°52'0 0.0
2017-Nov-16 13:50N 29°58' W 093°52'0 0.0
2017-Nov-16 13:30N 29°58' W 093°52'0 0.0
2017-Nov-16 12:56N 29°58' W 093°52'0 0.0
2017-Nov-16 11:47N 29°58' W 093°52'0 0.0
2017-Nov-16 11:29N 29°58' W 093°52'0 0.0
2017-Nov-16 10:57N 29°58' W 093°52'0 0.0
2017-Nov-16 10:28N 29°58' W 093°52'0 0.0
2017-Nov-16 10:00N 29°58' W 093°52'0 0.0
2017-Nov-16 09:30N 29°58' W 093°52'0 0.0
2017-Nov-16 09:00N 29°58' W 093°52'0 0.0
2017-Nov-16 08:27N 29°58' W 093°52'0 0.0
2017-Nov-16 05:36N 29°58' W 093°52'0 0.0
2017-Nov-16 05:26N 29°58' W 093°52'0 0.0
2017-Nov-16 03:44N 29°58' W 093°52'0 0.0
2017-Nov-16 03:10N 29°58' W 093°52'0 0.0
2017-Nov-16 02:44N 29°58' W 093°52'  
2017-Nov-13 22:09N 29°33' W 094°54'1 6.4
2017-Nov-13 22:00N 29°33' W 094°55'16 0.8
2017-Nov-13 01:54N 29°46' W 095°06'0 0.0
2017-Nov-13 00:47N 29°46' W 095°06'0 1.0
2017-Nov-13 00:24N 29°46' W 095°06'0 0.1
2017-Nov-12 21:42N 29°46' W 095°06'1 1.8
2017-Nov-12 21:23N 29°46' W 095°05'1 0.2
2017-Nov-12 12:35N 29°47' W 095°05'0 0.1
2017-Nov-12 09:00N 29°47' W 095°05'0 0.3
2017-Nov-12 07:34N 29°47' W 095°04'1 3.0
2017-Nov-12 07:16N 29°46' W 095°05'1 2.9
2017-Nov-12 07:00N 29°46' W 095°04'3 6.1
2017-Nov-12 06:31N 29°44' W 095°01'3 5.8
2017-Nov-12 06:01N 29°41' W 094°59'3 6.8
2017-Nov-12 05:31N 29°38' W 094°58'3 6.4
2017-Nov-12 05:00N 29°35' W 094°56'3 6.8
2017-Nov-12 04:31N 29°33' W 094°54'  
Track history (hours):
 
Tides and Currents Weather Stations Pressure Air Temp Water Temp Dewpoint Dewpoint Depression Visibility Wind Speed Wind Dir Waves Ship Positions

Diane

Owner: Enterprise Marine Services, LLC, San Antonio, TX. More information available from US FCC via Universal Licensing System and Coast Guard Vessel Documentation Center.

Last reported at 2017-Nov-19 12:27 UTC. Time now 2017-Nov-21 02:43 UTC.
Position N 29°47' W 095°05'.

Length 24 m; draft 0.6 m.

Type: . MMSI: 367131150.

Date/timePositionNaut miles runAvg speedWind from/ knotsBaromVisibWave heightAir tempDewpointWater temp
2017-Nov-19 12:27N 29°47' W 095°05'2 0.1
2017-Nov-18 17:08N 29°46' W 095°05'1 6.0
2017-Nov-18 16:54N 29°45' W 095°04'3 5.8
2017-Nov-18 16:26N 29°43' W 095°01'2 5.9
2017-Nov-18 16:00N 29°41' W 094°59'3 6.2
2017-Nov-18 15:30N 29°38' W 094°58'4 7.2
2017-Nov-18 15:00N 29°35' W 094°56'4 7.1
2017-Nov-18 14:30N 29°32' W 094°54'60 1.3
2017-Nov-16 14:50N 29°58' W 093°52'0 0.0
2017-Nov-16 14:18N 29°58' W 093°52'0 0.0
2017-Nov-16 13:50N 29°58' W 093°52'0 0.0
2017-Nov-16 13:30N 29°58' W 093°52'0 0.0
2017-Nov-16 12:56N 29°58' W 093°52'0 0.0
2017-Nov-16 11:47N 29°58' W 093°52'0 0.0
2017-Nov-16 11:29N 29°58' W 093°52'0 0.0
2017-Nov-16 10:57N 29°58' W 093°52'0 0.0
2017-Nov-16 10:28N 29°58' W 093°52'0 0.0
2017-Nov-16 10:00N 29°58' W 093°52'0 0.0
2017-Nov-16 09:30N 29°58' W 093°52'0 0.0
2017-Nov-16 09:00N 29°58' W 093°52'0 0.0
2017-Nov-16 08:27N 29°58' W 093°52'0 0.0
2017-Nov-16 05:36N 29°58' W 093°52'0 0.0
2017-Nov-16 05:26N 29°58' W 093°52'0 0.0
2017-Nov-16 03:44N 29°58' W 093°52'0 0.0
2017-Nov-16 03:10N 29°58' W 093°52'0 0.0
2017-Nov-16 02:44N 29°58' W 093°52'  
2017-Nov-13 22:09N 29°33' W 094°54'1 6.4
2017-Nov-13 22:00N 29°33' W 094°55'16 0.8
2017-Nov-13 01:54N 29°46' W 095°06'0 0.0
2017-Nov-13 00:47N 29°46' W 095°06'0 1.0
2017-Nov-13 00:24N 29°46' W 095°06'0 0.1
2017-Nov-12 21:42N 29°46' W 095°06'1 1.8
2017-Nov-12 21:23N 29°46' W 095°05'1 0.2
2017-Nov-12 12:35N 29°47' W 095°05'0 0.1
2017-Nov-12 09:00N 29°47' W 095°05'0 0.3
2017-Nov-12 07:34N 29°47' W 095°04'1 3.0
2017-Nov-12 07:16N 29°46' W 095°05'1 2.9
2017-Nov-12 07:00N 29°46' W 095°04'3 6.1
2017-Nov-12 06:31N 29°44' W 095°01'3 5.8
2017-Nov-12 06:01N 29°41' W 094°59'3 6.8
2017-Nov-12 05:31N 29°38' W 094°58'3 6.4
2017-Nov-12 05:00N 29°35' W 094°56'3 6.8
2017-Nov-12 04:31N 29°33' W 094°54'  

Dump ship's entire track history